Time;durP1;ratioP1;P1;durP2;ratioP2;P2;SDS_P1;SDS_P2;PMS_P1;PMS_P2;Temp;Humidity;BMP_temperature;BMP_pressure;BME280_temperature;BME280_humidity;BME280_pressure;Samples;Min_cycle;Max_cycle;Signal;HPM_P1;HPM_P2
2023/03/14 00:04:31;;;;;;;1.52;0.63;;;;;;;10.67;100.00;97866.34;10541535;28;20040;-70
2023/03/14 00:09:33;;;;;;;0.70;0.70;;;;;;;10.54;100.00;97838.28;10541362;28;20032;-70
2023/03/14 00:14:34;;;;;;;1.17;0.90;;;;;;;10.73;100.00;97822.13;10541023;28;20036;-70
2023/03/14 00:19:36;;;;;;;2.78;1.20;;;;;;;10.75;100.00;97824.63;10540533;28;20044;-70
2023/03/14 00:24:38;;;;;;;1.35;0.90;;;;;;;10.83;100.00;97831.06;10540959;28;20048;-70
2023/03/14 00:29:42;;;;;;;1.83;1.13;;;;;;;10.38;100.00;97816.59;10542125;28;20127;-70
2023/03/14 00:34:43;;;;;;;2.00;1.30;;;;;;;10.42;100.00;97811.97;10541323;28;20070;-70
2023/03/14 00:39:45;;;;;;;1.50;1.40;;;;;;;10.02;100.00;97827.69;10540501;28;20043;-70
2023/03/14 00:44:47;;;;;;;2.75;1.55;;;;;;;10.13;100.00;97840.94;10522363;28;20044;-70
2023/03/14 00:49:49;;;;;;;2.33;1.40;;;;;;;9.97;100.00;97822.75;10522047;28;20044;-70
2023/03/14 00:54:53;;;;;;;2.10;1.42;;;;;;;10.11;100.00;97827.09;10540996;28;20068;-71
2023/03/14 00:59:54;;;;;;;1.85;1.65;;;;;;;9.99;100.00;97844.47;10505656;28;20444;-69
2023/03/14 01:04:56;;;;;;;2.20;1.52;;;;;;;9.80;100.00;97857.94;10523277;28;20048;-71
2023/03/14 01:09:58;;;;;;;1.45;1.35;;;;;;;9.71;100.00;97842.78;10540128;28;20187;-70
2023/03/14 01:15:00;;;;;;;1.98;1.30;;;;;;;9.56;100.00;97843.72;10540660;28;20048;-70
2023/03/14 01:20:04;;;;;;;1.75;1.08;;;;;;;9.97;100.00;97824.53;10539359;28;20124;-71
2023/03/14 01:25:09;;;;;;;0.95;0.88;;;;;;;10.25;100.00;97808.69;10539432;28;20143;-70
2023/03/14 01:30:12;;;;;;;1.17;0.65;;;;;;;10.16;100.00;97827.63;10541867;28;20044;-70
2023/03/14 01:35:14;;;;;;;0.90;0.90;;;;;;;10.24;100.00;97827.13;10547039;28;20044;-70
2023/03/14 01:40:16;;;;;;;1.20;1.10;;;;;;;10.15;100.00;97841.72;10545571;28;20070;-70
2023/03/14 01:45:56;;;;;;;1.35;1.25;;;;;;;10.05;100.00;97835.38;10529705;28;20115;-70
2023/03/14 01:51:00;;;;;;;1.70;1.60;;;;;;;10.34;100.00;97810.69;10528727;28;20040;-70
2023/03/14 01:56:03;;;;;;;1.98;1.60;;;;;;;10.31;100.00;97810.91;10547241;28;20489;-71
2023/03/14 02:01:06;;;;;;;1.63;1.50;;;;;;;10.41;100.00;97810.31;10544653;28;20055;-70
2023/03/14 02:06:09;;;;;;;1.08;1.00;;;;;;;10.46;100.00;97805.59;10528509;28;20072;-70
2023/03/14 02:11:14;;;;;;;1.60;1.10;;;;;;;10.68;100.00;97791.84;10527929;28;20044;-70
2023/03/14 02:16:30;;;;;;;1.00;0.90;;;;;;;10.69;100.00;97794.38;10527858;28;20130;-71
2023/03/14 02:22:06;;;;;;;0.80;0.80;;;;;;;10.69;100.00;97790.91;10528171;28;20062;-71
2023/03/14 02:27:15;;;;;;;;;;;;;;;10.78;98.98;97788.47;10527817;28;20051;-69
2023/03/14 02:32:23;;;;;;;1.95;0.65;;;;;;;10.74;99.33;97776.50;10544080;28;19956;-70
2023/03/14 02:37:38;;;;;;;0.70;0.68;;;;;;;10.59;99.80;97783.63;10527126;28;20040;-70
2023/03/14 02:42:40;;;;;;;0.73;0.43;;;;;;;10.51;99.61;97787.72;10526508;28;20052;-70
2023/03/14 02:47:58;;;;;;;0.30;0.30;;;;;;;10.78;96.55;97788.47;10526479;28;20040;-72
2023/03/14 02:53:01;;;;;;;0.30;0.28;;;;;;;10.89;93.67;97785.13;10526495;28;20044;-70
2023/03/14 02:58:03;;;;;;;0.20;0.20;;;;;;;10.96;91.51;97793.41;10525882;28;20036;-71
2023/03/14 03:03:08;;;;;;;0.30;0.20;;;;;;;11.18;89.31;97774.38;10525384;28;20048;-71
2023/03/14 03:08:10;;;;;;;0.15;0.15;;;;;;;11.08;89.71;97767.13;10525836;28;20086;-71
2023/03/14 03:13:12;;;;;;;0.13;0.10;;;;;;;11.03;90.17;97765.78;10525500;28;20044;-69
2023/03/14 03:18:15;;;;;;;0.30;0.20;;;;;;;10.85;91.83;97763.47;10525241;28;20040;-70
2023/03/14 03:23:17;;;;;;;0.50;0.10;;;;;;;10.95;89.62;97763.66;10524676;28;20048;-69
2023/03/14 03:28:20;;;;;;;0.40;0.22;;;;;;;10.95;88.29;97762.84;10543510;28;20102;-70
2023/03/14 03:33:23;;;;;;;0.25;0.25;;;;;;;10.84;89.33;97763.56;10512704;22;20052;-71
2023/03/14 03:38:25;;;;;;;0.30;0.20;;;;;;;10.88;88.57;97769.44;10502194;28;20043;-72
2023/03/14 03:43:28;;;;;;;0.13;0.10;;;;;;;11.03;85.39;97779.75;10514453;28;20126;-72
2023/03/14 03:48:32;;;;;;;0.40;0.20;;;;;;;11.25;83.14;97767.75;10523979;28;20040;-72
2023/03/14 03:53:36;;;;;;;0.35;0.30;;;;;;;10.99;86.43;97769.56;10507569;28;20041;-71
2023/03/14 03:58:43;;;;;;;0.20;0.20;;;;;;;11.31;81.63;97780.44;10526581;28;20044;-71
2023/03/14 04:03:45;;;;;;;0.10;0.10;;;;;;;10.90;85.41;97747.38;10541510;28;20089;-71
2023/03/14 04:08:47;;;;;;;0.73;0.17;;;;;;;10.67;87.26;97764.75;10523438;28;20405;-72
2023/03/14 04:14:09;;;;;;;0.15;0.10;;;;;;;10.83;84.55;97767.13;10523264;28;20052;-71
2023/03/14 04:19:11;;;;;;;1.02;0.22;;;;;;;11.02;83.14;97779.84;10508571;28;20052;-72
2023/03/14 04:24:13;;;;;;;0.35;0.20;;;;;;;10.91;83.29;97782.38;10522667;28;20501;-72
2023/03/14 04:29:18;;;;;;;0.40;0.20;;;;;;;10.53;86.92;97767.44;10522930;28;20495;-71
2023/03/14 04:34:21;;;;;;;0.63;0.35;;;;;;;10.56;87.66;97760.19;10521939;28;20079;-72
2023/03/14 04:39:27;;;;;;;1.30;0.32;;;;;;;10.20;88.75;97752.16;10522819;28;20040;-72
2023/03/14 04:44:38;;;;;;;1.25;0.22;;;;;;;10.42;85.43;97759.47;10522733;28;20064;-71
2023/03/14 04:49:41;;;;;;;0.55;0.30;;;;;;;10.53;83.91;97749.06;10539889;28;20040;-71
2023/03/14 04:54:45;;;;;;;3.00;0.60;;;;;;;10.53;82.56;97755.13;10521897;28;20134;-72
2023/03/14 04:59:47;;;;;;;1.92;0.40;;;;;;;10.54;81.67;97756.84;10540032;28;20039;-72
2023/03/14 05:05:03;;;;;;;2.58;0.70;;;;;;;10.60;80.29;97735.41;10528094;28;20112;-71
2023/03/14 05:10:25;;;;;;;1.85;0.60;;;;;;;10.35;82.64;97725.72;10548762;28;20074;-72
2023/03/14 05:15:47;;;;;;;1.75;0.60;;;;;;;10.51;81.44;97740.44;10547657;28;20105;-72
2023/03/14 05:21:21;;;;;;;2.65;0.73;;;;;;;10.41;84.90;97745.50;10531869;28;20044;-72
2023/03/14 05:26:44;;;;;;;1.75;0.70;;;;;;;10.41;82.34;97742.88;10549431;28;20059;-72
2023/03/14 05:32:13;;;;;;;1.45;0.63;;;;;;;10.33;83.73;97743.38;10528802;28;20052;-72
2023/03/14 05:37:37;;;;;;;2.97;0.80;;;;;;;10.35;82.79;97736.22;10525793;28;20043;-72
2023/03/14 05:43:02;;;;;;;1.17;0.80;;;;;;;10.27;83.23;97735.91;10545651;28;20128;-72
2023/03/14 05:48:13;;;;;;;2.28;0.68;;;;;;;10.31;81.87;97726.03;10531330;28;20412;-71
2023/03/14 05:53:35;;;;;;;3.58;0.88;;;;;;;10.43;81.52;97721.75;10547495;28;20105;-72
2023/03/14 05:58:55;;;;;;;2.55;0.85;;;;;;;10.41;80.82;97728.91;10546629;28;20044;-72
2023/03/14 06:04:04;;;;;;;2.92;0.82;;;;;;;10.42;81.11;97714.81;10547116;28;20051;-72
2023/03/14 06:09:07;;;;;;;2.95;0.55;;;;;;;10.25;82.55;97705.44;10513729;28;20502;-72
2023/03/14 06:14:12;;;;;;;4.13;0.90;;;;;;;10.47;79.86;97710.91;10526851;28;20055;-72
2023/03/14 06:19:17;;;;;;;3.38;0.80;;;;;;;10.66;79.87;97733.28;10527232;28;20040;-72
2023/03/14 06:24:19;;;;;;;1.63;0.70;;;;;;;10.38;81.41;97740.44;10545104;28;20055;-72
2023/03/14 06:29:24;;;;;;;3.78;1.10;;;;;;;10.41;80.95;97734.97;10521062;28;20134;-72
2023/03/14 06:34:26;;;;;;;3.40;1.00;;;;;;;10.47;79.41;97749.47;10526722;28;20044;-72
2023/03/14 06:39:28;;;;;;;3.35;0.95;;;;;;;10.61;79.44;97768.59;10545393;28;20062;-72
2023/03/14 06:44:38;;;;;;;3.53;0.85;;;;;;;10.96;76.28;97769.75;10526882;28;20097;-72
2023/03/14 06:49:40;;;;;;;4.53;1.10;;;;;;;10.99;76.62;97769.56;10526387;28;20090;-72
2023/03/14 06:54:42;;;;;;;2.13;0.70;;;;;;;10.97;78.16;97774.91;10527727;28;20140;-73
2023/03/14 06:59:44;;;;;;;1.52;0.63;;;;;;;10.91;78.08;97771.88;10525556;28;20050;-71
2023/03/14 07:04:45;;;;;;;2.88;0.68;;;;;;;11.01;77.26;97752.72;10525548;28;20052;-72
2023/03/14 07:09:48;;;;;;;3.63;0.80;;;;;;;11.18;76.87;97769.09;10525212;28;20133;-71
2023/03/14 07:14:50;;;;;;;3.80;1.50;;;;;;;11.09;77.13;97766.16;10544780;28;20074;-72
2023/03/14 07:19:52;;;;;;;2.28;0.60;;;;;;;11.16;76.56;97771.84;10526342;28;20040;-71
2023/03/14 07:24:54;;;;;;;2.92;0.73;;;;;;;11.06;77.70;97762.91;10524438;28;20455;-71
2023/03/14 07:29:57;;;;;;;1.55;0.50;;;;;;;11.39;74.98;97772.03;10524374;28;20036;-71
2023/03/14 07:34:59;;;;;;;3.72;0.68;;;;;;;11.26;75.19;97772.88;10545064;28;20050;-71
2023/03/14 07:40:01;;;;;;;1.30;0.55;;;;;;;11.31;75.37;97769.94;10523593;28;20040;-70
2023/03/14 07:45:05;;;;;;;2.42;0.65;;;;;;;11.38;75.38;97773.81;10523778;28;20044;-71
2023/03/14 07:50:09;;;;;;;3.28;0.88;;;;;;;11.23;77.42;97777.50;10523956;28;20048;-72
2023/03/14 07:55:13;;;;;;;2.22;1.33;;;;;;;11.23;77.39;97774.88;10541562;28;20050;-72
2023/03/14 08:00:15;;;;;;;2.63;0.80;;;;;;;11.42;75.55;97775.28;10543399;28;20036;-71
2023/03/14 08:05:16;;;;;;;1.50;0.65;;;;;;;11.48;74.99;97756.41;10542603;28;20052;-72
2023/03/14 08:10:24;;;;;;;2.78;0.70;;;;;;;11.39;77.50;97759.72;10542901;28;20389;-71
2023/03/14 08:15:29;;;;;;;4.38;0.70;;;;;;;11.43;74.76;97760.34;10534557;28;20044;-71
2023/03/14 08:20:31;;;;;;;1.60;0.70;;;;;;;11.60;73.82;97770.50;10524202;28;20050;-71
2023/03/14 08:25:33;;;;;;;1.05;0.40;;;;;;;11.95;70.75;97765.28;10542431;28;20114;-73
2023/03/14 08:30:35;;;;;;;2.95;0.55;;;;;;;11.97;69.56;97763.41;10522323;28;20055;-71
2023/03/14 08:35:38;;;;;;;1.15;0.70;;;;;;;12.03;69.55;97765.59;10541035;28;20536;-71
2023/03/14 08:40:40;;;;;;;1.25;0.40;;;;;;;12.16;68.29;97762.03;10542835;28;20122;-71
2023/03/14 08:45:41;;;;;;;1.90;0.70;;;;;;;12.13;69.51;97760.50;10523375;28;20119;-71
2023/03/14 08:50:43;;;;;;;0.95;0.52;;;;;;;12.30;67.65;97761.84;10534803;28;20047;-71
2023/03/14 08:55:45;;;;;;;1.25;0.35;;;;;;;12.42;65.05;97753.03;10540355;28;20097;-71
2023/03/14 09:00:46;;;;;;;1.58;0.40;;;;;;;12.47;64.28;97760.59;10539657;28;20040;-72
2023/03/14 09:05:49;;;;;;;1.10;0.50;;;;;;;12.48;64.81;97749.91;10503051;28;20055;-73
2023/03/14 09:10:51;;;;;;;1.63;0.40;;;;;;;12.61;65.38;97739.28;10498060;28;20059;-72
2023/03/14 09:15:55;;;;;;;4.38;0.75;;;;;;;12.55;64.88;97755.56;10498769;28;20068;-72
2023/03/14 09:20:56;;;;;;;2.25;0.57;;;;;;;12.66;65.26;97752.09;10518843;28;20032;-70
2023/03/14 09:25:59;;;;;;;1.25;0.60;;;;;;;12.71;64.34;97761.38;10540730;28;20128;-72
2023/03/14 09:31:28;;;;;;;2.45;0.80;;;;;;;12.58;65.42;97753.56;10554266;22;20086;-65
2023/03/14 09:36:30;;;;;;;1.15;0.40;;;;;;;12.49;67.68;97767.44;10455009;28;20076;-71
2023/03/14 09:41:36;;;;;;;2.05;0.40;;;;;;;12.54;64.92;97767.91;10457169;28;20132;-72
2023/03/14 09:46:39;;;;;;;1.13;0.60;;;;;;;12.47;63.86;97769.31;10438588;28;20045;-72
2023/03/14 09:51:43;;;;;;;3.45;0.60;;;;;;;12.38;66.25;97773.50;10460190;28;20514;-71
2023/03/14 09:56:48;;;;;;;1.65;0.50;;;;;;;12.23;68.60;97766.75;10464476;28;20380;-72
2023/03/14 10:01:50;;;;;;;1.70;0.50;;;;;;;12.23;65.83;97776.44;10464566;28;20041;-72
2023/03/14 10:06:52;;;;;;;0.80;0.40;;;;;;;12.37;64.40;97777.09;10446477;28;20052;-73
2023/03/14 10:11:56;;;;;;;0.35;0.30;;;;;;;12.30;63.95;97781.13;10446732;28;20521;-71
2023/03/14 10:17:09;;;;;;;1.48;0.45;;;;;;;12.30;64.17;97778.50;10447182;28;20084;-71
2023/03/14 10:22:14;;;;;;;1.20;0.30;;;;;;;12.27;62.23;97786.66;10462912;28;20041;-71
2023/03/14 10:27:29;;;;;;;0.82;0.30;;;;;;;12.22;62.38;97766.84;10462793;28;20048;-71
2023/03/14 10:32:41;;;;;;;1.65;0.45;;;;;;;12.27;64.29;97772.63;10462250;28;20398;-72
2023/03/14 10:38:02;;;;;;;0.70;0.40;;;;;;;12.24;65.48;97771.06;10463331;28;20048;-73
2023/03/14 10:43:06;;;;;;;0.75;0.40;;;;;;;12.41;62.14;97776.88;10443535;28;20455;-72
2023/03/14 10:48:31;;;;;;;1.25;0.40;;;;;;;12.08;65.79;97768.72;10462232;28;20503;-72
2023/03/14 10:53:39;;;;;;;1.33;0.47;;;;;;;12.09;64.80;97772.22;10461923;28;20074;-72
2023/03/14 10:58:46;;;;;;;1.45;0.40;;;;;;;12.30;65.01;97773.22;10461504;28;20145;-72
2023/03/14 11:04:18;;;;;;;1.52;0.35;;;;;;;12.31;63.54;97774.94;10462285;28;20055;-71
2023/03/14 11:09:36;;;;;;;1.10;0.30;;;;;;;12.33;63.82;97786.16;10460930;28;20069;-71
2023/03/14 11:14:43;;;;;;;0.95;0.30;;;;;;;12.46;62.81;97775.56;10442779;28;20445;-71
2023/03/14 11:20:17;;;;;;;1.73;0.50;;;;;;;12.44;64.30;97769.56;10460785;28;20065;-72
2023/03/14 11:25:32;;;;;;;1.33;0.55;;;;;;;12.43;63.07;97754.69;10460667;28;20151;-72
2023/03/14 11:30:52;;;;;;;1.48;0.40;;;;;;;12.59;65.08;97764.94;10460124;28;20095;-72
2023/03/14 11:36:03;;;;;;;1.27;0.40;;;;;;;12.94;62.87;97759.59;10442090;28;20060;-72
2023/03/14 11:41:19;;;;;;;1.70;0.50;;;;;;;13.39;59.71;97746.41;10459961;28;20041;-72
2023/03/14 11:46:26;;;;;;;0.95;0.40;;;;;;;13.29;59.24;97740.19;10441460;28;20057;-72
2023/03/14 11:51:34;;;;;;;1.75;0.60;;;;;;;13.14;60.43;97732.47;10441334;28;20049;-72
2023/03/14 11:56:57;;;;;;;2.20;0.75;;;;;;;13.14;61.27;97724.56;10454085;28;20045;-71
2023/03/14 12:02:54;;;;;;;2.97;0.70;;;;;;;13.14;60.76;97718.44;10432945;28;20045;-72
2023/03/14 12:08:08;;;;;;;1.27;0.32;;;;;;;13.28;59.78;97720.91;10337511;28;20085;-73
2023/03/14 12:13:11;;;;;;;1.02;0.40;;;;;;;13.59;58.14;97715.75;10416902;28;20511;-73
2023/03/14 12:18:21;;;;;;;2.20;0.68;;;;;;;13.59;59.24;97716.63;10398938;28;20049;-72
2023/03/14 12:23:24;;;;;;;2.90;0.57;;;;;;;13.74;56.89;97698.69;10435258;28;20048;-72
2023/03/14 12:28:35;;;;;;;1.88;0.60;;;;;;;13.87;58.42;97690.63;10500076;28;20508;-71
2023/03/14 12:33:37;;;;;;;4.72;0.50;;;;;;;13.81;57.86;97709.56;10497774;28;20049;-72
2023/03/14 12:39:01;;;;;;;0.28;0.20;;;;;;;13.80;56.98;97706.09;10499364;28;20040;-72
2023/03/14 12:44:29;;;;;;;1.60;0.20;;;;;;;13.50;58.35;97717.38;10500322;28;20075;-73
2023/03/14 12:49:35;;;;;;;0.45;0.10;;;;;;;13.55;58.05;97709.91;10494804;28;20510;-72
2023/03/14 12:54:49;;;;;;;1.08;0.20;;;;;;;13.80;59.15;97689.44;10500784;28;20116;-73
2023/03/14 13:00:07;;;;;;;0.43;0.35;;;;;;;13.90;58.45;97685.09;10499329;28;20040;-73
2023/03/14 13:05:22;;;;;;;1.00;0.38;;;;;;;13.89;58.54;97680.75;10483151;28;20044;-73
2023/03/14 13:10:38;;;;;;;1.27;0.20;;;;;;;14.11;56.50;97688.56;10501085;28;20067;-72
2023/03/14 13:15:44;;;;;;;0.80;0.22;;;;;;;13.81;55.96;97676.13;10501086;28;20044;-73
2023/03/14 13:20:53;;;;;;;0.98;0.10;;;;;;;13.75;56.26;97671.31;10499681;28;20044;-74
2023/03/14 13:25:56;;;;;;;0.90;0.22;;;;;;;13.65;56.96;97667.78;10503436;28;20452;-74
2023/03/14 13:31:01;;;;;;;0.65;0.20;;;;;;;13.71;56.64;97655.88;10490648;28;20083;-74
2023/03/14 13:36:05;;;;;;;0.20;0.20;;;;;;;13.76;56.46;97664.25;10506855;28;20401;-73
2023/03/14 13:41:08;;;;;;;0.82;0.20;;;;;;;13.95;57.42;97653.84;10506927;28;20051;-74
2023/03/14 13:46:25;;;;;;;0.70;0.30;;;;;;;13.76;57.82;97665.06;10507166;28;20044;-74
2023/03/14 13:51:31;;;;;;;1.83;0.30;;;;;;;13.80;57.21;97660.38;10507100;28;20033;-74
2023/03/14 13:56:33;;;;;;;1.57;0.20;;;;;;;13.91;57.77;97656.88;10506600;28;20409;-74
2023/03/14 14:01:38;;;;;;;0.32;0.10;;;;;;;13.83;56.56;97657.50;10506422;28;20390;-73
2023/03/14 14:06:49;;;;;;;0.63;0.28;;;;;;;13.72;57.39;97654.88;10506648;28;20044;-75
2023/03/14 14:11:58;;;;;;;1.75;0.22;;;;;;;13.65;56.72;97648.47;10506831;28;20047;-74
2023/03/14 14:17:21;;;;;;;0.22;0.20;;;;;;;13.70;57.70;97643.63;10490909;28;20052;-74
2023/03/14 14:22:24;;;;;;;1.20;0.20;;;;;;;13.95;56.69;97632.72;10488161;28;20115;-74
2023/03/14 14:27:36;;;;;;;0.28;0.20;;;;;;;13.88;56.35;97621.81;10505586;28;20041;-75
2023/03/14 14:32:40;;;;;;;0.20;0.17;;;;;;;13.89;56.71;97614.72;10488152;28;20040;-74
2023/03/14 14:37:44;;;;;;;1.13;0.30;;;;;;;13.98;55.31;97626.31;10504612;28;20120;-74
2023/03/14 14:42:47;;;;;;;0.32;0.20;;;;;;;13.70;55.86;97625.16;10487733;28;20444;-74
2023/03/14 14:47:54;;;;;;;0.60;0.20;;;;;;;13.73;56.63;97624.91;10506097;28;20139;-75
2023/03/14 14:53:29;;;;;;;0.10;0.10;;;;;;;13.63;56.66;97622.16;10508628;28;20494;-74
2023/03/14 14:58:39;;;;;;;2.30;0.30;;;;;;;13.66;56.13;97621.94;10483226;28;20485;-75
2023/03/14 15:03:43;;;;;;;0.15;0.10;;;;;;;13.68;56.63;97620.00;10505903;28;20036;-75
2023/03/14 15:08:48;;;;;;;0.77;0.35;;;;;;;13.54;56.87;97629.03;10489154;28;20052;-75
2023/03/14 15:13:52;;;;;;;0.68;0.35;;;;;;;13.39;58.22;97617.13;10507789;28;20132;-74
2023/03/14 15:18:56;;;;;;;1.13;0.80;;;;;;;13.43;57.77;97623.81;10448736;28;20041;-75
2023/03/14 15:23:58;;;;;;;28.35;17.20;;;;;;;13.21;58.17;97623.84;10445275;28;20069;-75
2023/03/14 15:29:00;;;;;;;1.00;0.40;;;;;;;13.22;58.77;97626.38;10457995;28;20367;-75
2023/03/14 15:34:03;;;;;;;5.63;4.45;;;;;;;13.25;58.53;97627.97;10456741;22;20039;-71
2023/03/14 15:39:06;;;;;;;2.28;1.58;;;;;;;13.20;58.80;97636.22;10585730;28;20046;-71
2023/03/14 15:44:08;;;;;;;0.77;0.73;;;;;;;13.19;59.50;97631.88;10623436;27;20043;-70
2023/03/14 15:49:10;;;;;;;0.38;0.28;;;;;;;13.18;59.98;97637.28;10625010;27;20049;-70
2023/03/14 15:54:11;;;;;;;3.50;3.30;;;;;;;13.23;59.24;97650.97;10626160;27;20047;-70
2023/03/14 15:59:13;;;;;;;0.95;0.30;;;;;;;13.09;59.84;97649.41;10625394;27;20039;-70
2023/03/14 16:04:15;;;;;;;0.45;0.30;;;;;;;13.06;60.29;97663.69;10608102;27;20114;-70
2023/03/14 16:09:16;;;;;;;0.50;0.32;;;;;;;13.00;60.34;97664.16;10626344;27;20035;-70
2023/03/14 16:14:18;;;;;;;0.47;0.40;;;;;;;12.92;61.84;97694.75;10607722;27;20046;-70
2023/03/14 16:19:20;;;;;;;1.60;0.20;;;;;;;12.78;62.14;97723.00;10626284;27;20043;-73
2023/03/14 16:24:21;;;;;;;0.20;0.10;;;;;;;12.38;67.51;97747.16;10625967;27;20553;-72
2023/03/14 16:29:23;;;;;;;0.52;0.20;;;;;;;11.80;76.91;97766.41;10621315;27;20481;-73
2023/03/14 16:34:25;;;;;;;0.52;0.20;;;;;;;11.07;85.98;97794.38;10535935;28;20054;-72
2023/03/14 16:39:31;;;;;;;0.82;0.35;;;;;;;10.64;94.00;97811.38;10541503;28;20389;-72
2023/03/14 16:44:32;;;;;;;0.85;0.10;;;;;;;9.24;87.59;97953.19;10568241;28;20389;-72
2023/03/14 16:49:34;;;;;;;0.50;0.40;;;;;;;7.61;94.87;97956.19;10565185;28;20047;-72
2023/03/14 16:54:36;;;;;;;1.10;0.30;;;;;;;6.85;100.00;97989.72;10581840;28;20043;-73
2023/03/14 16:59:37;;;;;;;1.02;0.35;;;;;;;6.48;100.00;98027.19;10566275;28;20114;-72
2023/03/14 17:04:40;;;;;;;0.45;0.40;;;;;;;6.32;100.00;98071.41;10573098;28;20580;-73
2023/03/14 17:09:42;;;;;;;1.48;0.35;;;;;;;6.13;100.00;98100.09;10567354;28;20468;-73
2023/03/14 17:14:44;;;;;;;0.60;0.40;;;;;;;6.10;100.00;98148.94;10534929;28;20055;-72
2023/03/14 17:19:46;;;;;;;0.20;0.20;;;;;;;5.71;100.00;98170.56;10549267;28;20044;-74
2023/03/14 17:24:48;;;;;;;0.35;0.30;;;;;;;5.40;100.00;98228.31;10548717;28;20036;-72
2023/03/14 17:29:50;;;;;;;0.50;0.50;;;;;;;5.26;100.00;98286.16;10540357;28;20071;-73
2023/03/14 17:34:53;;;;;;;0.85;0.70;;;;;;;4.92;100.00;98318.69;10594184;28;20407;-72
2023/03/14 17:39:55;;;;;;;0.30;0.20;;;;;;;4.58;100.00;98368.47;10572244;28;20063;-73
2023/03/14 17:44:57;;;;;;;0.55;0.40;;;;;;;4.25;100.00;98402.53;10572155;28;20519;-72
2023/03/14 17:50:03;;;;;;;0.35;0.28;;;;;;;3.61;100.00;98435.69;10589996;28;20059;-74
2023/03/14 17:55:06;;;;;;;0.33;0.30;;;;;;;3.24;100.00;98477.44;10593150;28;20528;-73
2023/03/14 18:00:10;;;;;;;1.90;0.65;;;;;;;3.20;100.00;98499.19;10589038;28;20039;-72
2023/03/14 18:05:12;;;;;;;2.58;0.75;;;;;;;3.15;100.00;98516.63;10589500;28;20535;-74
2023/03/14 18:10:15;;;;;;;3.60;1.05;;;;;;;3.10;100.00;98532.34;10589233;28;20044;-74
2023/03/14 18:15:17;;;;;;;2.88;1.13;;;;;;;3.12;100.00;98571.22;10591081;28;20075;-74
2023/03/14 18:20:19;;;;;;;3.65;1.30;;;;;;;3.02;100.00;98579.25;10595524;28;20046;-73
2023/03/14 18:25:21;;;;;;;4.38;1.08;;;;;;;2.87;100.00;98589.97;10588970;28;20036;-73
2023/03/14 18:30:23;;;;;;;5.15;1.40;;;;;;;2.92;100.00;98616.69;10588019;28;20040;-72
2023/03/14 18:35:24;;;;;;;1.88;0.95;;;;;;;2.96;100.00;98633.88;10588765;28;20054;-73
2023/03/14 18:40:26;;;;;;;1.65;1.02;;;;;;;3.14;100.00;98657.69;10589732;28;20039;-73
2023/03/14 18:45:29;;;;;;;1.10;0.80;;;;;;;3.15;100.00;98681.06;10570667;28;20449;-73
2023/03/14 18:50:31;;;;;;;1.67;0.80;;;;;;;3.15;100.00;98677.59;10571061;28;20036;-74
2023/03/14 18:55:33;;;;;;;3.45;1.75;;;;;;;3.17;100.00;98673.22;10573188;28;20403;-75
2023/03/14 19:00:36;;;;;;;3.50;1.20;;;;;;;3.08;100.00;98694.22;10593066;28;20040;-75
2023/03/14 19:05:42;;;;;;;2.08;1.00;;;;;;;3.07;100.00;98695.94;10583625;27;20036;-74
2023/03/14 19:10:44;;;;;;;4.10;2.08;;;;;;;3.36;100.00;98709.97;10575729;27;20437;-74
2023/03/14 19:15:46;;;;;;;6.00;1.88;;;;;;;3.38;100.00;98723.81;10587806;28;20043;-74
2023/03/14 19:21:24;;;;;;;3.38;1.00;;;;;;;3.51;100.00;98735.63;10588778;28;20511;-73
2023/03/14 19:26:28;;;;;;;3.33;0.90;;;;;;;3.46;100.00;98747.88;10561055;28;20043;-73
2023/03/14 19:31:30;;;;;;;4.50;1.52;;;;;;;3.43;100.00;98773.91;10568010;28;20158;-75
2023/03/14 19:36:35;;;;;;;6.20;1.52;;;;;;;3.39;99.77;98788.69;10585987;28;20492;-74
2023/03/14 19:41:36;;;;;;;9.52;2.40;;;;;;;3.42;100.00;98796.44;10584901;28;20059;-74
2023/03/14 19:46:38;;;;;;;9.45;1.90;;;;;;;3.36;99.11;98803.50;10570249;28;20390;-73
2023/03/14 19:51:40;;;;;;;9.82;1.67;;;;;;;3.38;98.75;98815.56;10584317;28;20100;-73
2023/03/14 19:56:42;;;;;;;6.63;1.60;;;;;;;3.26;96.23;98836.59;10584518;28;20614;-73
2023/03/14 20:01:47;;;;;;;7.75;1.70;;;;;;;3.12;97.68;98841.25;10565724;28;20044;-74
2023/03/14 20:06:52;;;;;;;10.52;1.77;;;;;;;3.24;94.54;98853.97;10586988;28;20046;-74
2023/03/14 20:11:53;;;;;;;7.93;1.80;;;;;;;3.10;95.89;98872.44;10566235;28;20044;-73
2023/03/14 20:16:55;;;;;;;5.13;1.70;;;;;;;3.20;92.28;98873.97;10583843;28;20048;-73
2023/03/14 20:21:57;;;;;;;8.05;2.45;;;;;;;3.33;90.45;98894.50;10583175;28;20036;-73
2023/03/14 20:26:59;;;;;;;9.38;2.00;;;;;;;3.15;92.16;98895.72;10584978;28;20039;-72
2023/03/14 20:32:01;;;;;;;9.65;1.75;;;;;;;3.39;90.57;98908.19;10583258;28;20445;-74
2023/03/14 20:37:03;;;;;;;8.43;2.35;;;;;;;3.39;89.95;98922.91;10583503;28;20044;-74
2023/03/14 20:42:05;;;;;;;8.07;1.85;;;;;;;3.44;89.51;98934.91;10583675;28;20035;-73
2023/03/14 20:47:07;;;;;;;11.65;2.38;;;;;;;3.33;89.71;98941.25;10585332;28;20050;-74
2023/03/14 20:52:10;;;;;;;7.07;2.50;;;;;;;3.49;85.95;98942.63;10584903;28;20497;-74
2023/03/14 20:57:14;;;;;;;5.50;1.30;;;;;;;3.42;84.21;98944.50;10565071;28;20058;-73
2023/03/14 21:02:15;;;;;;;11.43;2.05;;;;;;;3.32;82.59;98960.28;10583135;28;20046;-74
2023/03/14 21:07:19;;;;;;;7.43;1.50;;;;;;;3.30;81.43;98965.53;10582273;28;20047;-73
2023/03/14 21:12:20;;;;;;;9.73;1.98;;;;;;;3.35;78.88;98981.00;10584030;28;20067;-73
2023/03/14 21:17:22;;;;;;;13.27;1.60;;;;;;;3.18;79.43;99002.09;10583650;28;20043;-75
2023/03/14 21:22:28;;;;;;;10.63;1.30;;;;;;;3.04;80.48;99002.34;10582795;28;20404;-74
2023/03/14 21:27:30;;;;;;;10.13;1.80;;;;;;;3.06;78.67;99007.53;10583045;28;20055;-74
2023/03/14 21:32:32;;;;;;;9.48;1.60;;;;;;;3.10;78.15;99023.03;10565958;28;20122;-73
2023/03/14 21:37:33;;;;;;;8.00;2.00;;;;;;;3.07;77.05;99023.09;10575987;22;20050;-69
2023/03/14 21:42:38;;;;;;;4.45;1.40;;;;;;;2.89;76.88;99028.59;10581919;28;20488;-72
2023/03/14 21:47:44;;;;;;;11.75;1.67;;;;;;;2.79;77.69;99038.28;10585658;28;20047;-70
2023/03/14 21:52:46;;;;;;;9.38;2.00;;;;;;;2.87;76.96;99051.97;10590527;28;20489;-70
2023/03/14 21:57:48;;;;;;;6.00;1.45;;;;;;;2.85;76.21;99060.66;10571564;28;20115;-70
2023/03/14 22:02:55;;;;;;;19.00;1.63;;;;;;;2.78;76.63;99070.28;10589470;28;20156;-71
2023/03/14 22:08:16;;;;;;;13.82;2.03;;;;;;;2.67;76.95;99079.97;10590372;28;20081;-70
2023/03/14 22:13:19;;;;;;;5.88;2.17;;;;;;;2.45;77.91;99084.63;10590012;28;20046;-70
2023/03/14 22:18:21;;;;;;;8.05;1.63;;;;;;;2.63;75.99;99096.47;10570960;28;20047;-70
2023/03/14 22:23:22;;;;;;;9.38;1.65;;;;;;;2.61;75.68;99112.06;10588358;28;20036;-69
2023/03/14 22:28:24;;;;;;;7.57;1.70;;;;;;;2.60;74.62;99131.09;10588190;28;20048;-69
2023/03/14 22:33:26;;;;;;;12.45;1.58;;;;;;;2.49;75.23;99128.66;10588338;28;20458;-69
2023/03/14 22:38:27;;;;;;;8.90;1.75;;;;;;;2.44;74.86;99142.56;10588156;28;20093;-69
2023/03/14 22:43:30;;;;;;;9.93;1.77;;;;;;;2.46;73.28;99151.19;10587977;28;20488;-70
2023/03/14 22:48:33;;;;;;;5.88;1.20;;;;;;;2.40;74.44;99164.25;10587716;28;20116;-69
2023/03/14 22:53:35;;;;;;;7.07;1.60;;;;;;;2.27;76.41;99166.13;10587883;28;20101;-70
2023/03/14 22:58:37;;;;;;;8.27;1.88;;;;;;;2.23;76.60;99161.84;10586948;28;20158;-70
2023/03/14 23:03:39;;;;;;;13.15;1.67;;;;;;;2.24;77.27;99167.00;10585972;28;20050;-70
2023/03/14 23:08:40;;;;;;;13.75;2.30;;;;;;;2.02;80.42;99181.09;10587949;28;20051;-69
2023/03/14 23:13:42;;;;;;;4.65;1.13;;;;;;;2.23;78.48;99183.44;10588687;28;20042;-69
2023/03/14 23:18:44;;;;;;;5.63;1.80;;;;;;;2.21;77.79;99193.00;10587053;28;20137;-69
2023/03/14 23:23:47;;;;;;;7.07;1.50;;;;;;;2.18;77.14;99199.94;10568122;28;20043;-70
2023/03/14 23:28:49;;;;;;;10.95;1.42;;;;;;;2.08;76.49;99206.97;10585987;28;20043;-70
2023/03/14 23:33:51;;;;;;;6.65;1.20;;;;;;;2.15;75.52;99200.81;10584583;28;20081;-69
2023/03/14 23:38:53;;;;;;;14.93;1.45;;;;;;;2.24;74.90;99207.63;10585757;28;20114;-69
2023/03/14 23:43:54;;;;;;;6.20;1.83;;;;;;;2.05;76.02;99212.19;10585482;28;20043;-70
2023/03/14 23:48:57;;;;;;;8.65;1.35;;;;;;;2.09;76.38;99221.63;10585330;28;20097;-69